Map

Track Data

SID SEASON NUMBER BASIN SUBBASIN NAME ISO_TIME NATURE LAT LON WMO_WIND WMO_PRES WMO_AGENCY TRACK_TYPE DIST2LAND LANDFALL IFLAG USA_AGENCY USA_ATCF_ID USA_LAT USA_LON USA_RECORD USA_STATUS USA_WIND USA_PRES USA_SSHS USA_R34_NE USA_R34_SE USA_R34_SW USA_R34_NW USA_R50_NE USA_R50_SE USA_R50_SW USA_R50_NW USA_R64_NE USA_R64_SE USA_R64_SW USA_R64_NW USA_POCI USA_ROCI USA_RMW USA_EYE TOKYO_LAT TOKYO_LON TOKYO_GRADE TOKYO_WIND TOKYO_PRES TOKYO_R50_DIR TOKYO_R50_LONG TOKYO_R50_SHORT TOKYO_R30_DIR TOKYO_R30_LONG TOKYO_R30_SHORT TOKYO_LAND CMA_LAT CMA_LON CMA_CAT CMA_WIND CMA_PRES HKO_LAT HKO_LON HKO_CAT HKO_WIND HKO_PRES NEWDELHI_LAT NEWDELHI_LON NEWDELHI_GRADE NEWDELHI_WIND NEWDELHI_PRES NEWDELHI_CI NEWDELHI_DP NEWDELHI_POCI REUNION_LAT REUNION_LON REUNION_TYPE REUNION_WIND REUNION_PRES REUNION_TNUM REUNION_CI REUNION_RMW REUNION_R34_NE REUNION_R34_SE REUNION_R34_SW REUNION_R34_NW REUNION_R50_NE REUNION_R50_SE REUNION_R50_SW REUNION_R50_NW REUNION_R64_NE REUNION_R64_SE REUNION_R64_SW REUNION_R64_NW BOM_LAT BOM_LON BOM_TYPE BOM_WIND BOM_PRES BOM_TNUM BOM_CI BOM_RMW BOM_R34_NE BOM_R34_SE BOM_R34_SW BOM_R34_NW BOM_R50_NE BOM_R50_SE BOM_R50_SW BOM_R50_NW BOM_R64_NE BOM_R64_SE BOM_R64_SW BOM_R64_NW BOM_ROCI BOM_POCI BOM_EYE BOM_POS_METHOD BOM_PRES_METHOD NADI_LAT NADI_LON NADI_CAT NADI_WIND NADI_PRES WELLINGTON_LAT WELLINGTON_LON WELLINGTON_WIND WELLINGTON_PRES DS824_LAT DS824_LON DS824_STAGE DS824_WIND DS824_PRES TD9636_LAT TD9636_LON TD9636_STAGE TD9636_WIND TD9636_PRES TD9635_LAT TD9635_LON TD9635_WIND TD9635_PRES TD9635_ROCI NEUMANN_LAT NEUMANN_LON NEUMANN_CLASS NEUMANN_WIND NEUMANN_PRES MLC_LAT MLC_LON MLC_CLASS MLC_WIND MLC_PRES USA_GUST BOM_GUST BOM_GUST_PER REUNION_GUST REUNION_GUST_PER USA_SEAHGT USA_SEARAD_NE USA_SEARAD_SE USA_SEARAD_SW USA_SEARAD_NW STORM_SPEED STORM_DIR
1888233N11299 1888 38 NA CS NOT_NAMED 1888-08-19 12:00:00 TS 11.0000 -61.2000 main 33 33 _____________O -1 11.0000 -61.2000 TD 30 16 284
1888233N11299 1888 38 NA CS NOT_NAMED 1888-08-19 15:00:00 TS 11.2004 -61.9898 main 60 56 _____________P -1 11.2004 -61.9898 TD 30 16 284
1888233N11299 1888 38 NA CS NOT_NAMED 1888-08-19 18:00:00 TS 11.4000 -62.8000 main 78 78 _____________O -1 11.4000 -62.8000 TD 30 17 284
1888233N11299 1888 38 NA CS NOT_NAMED 1888-08-19 21:00:00 TS 11.5998 -63.6426 main 111 111 _____________P -1 11.5998 -63.6426 TD 30 17 284
1888233N11299 1888 38 NA CS NOT_NAMED 1888-08-20 00:00:00 TS 11.8000 -64.5000 main 138 138 _____________O -1 11.8000 -64.5000 TD 30 17 283
1888233N11299 1888 38 NA CS NOT_NAMED 1888-08-20 03:00:00 TS 11.9998 -65.3576 main 169 166 _____________P -1 11.9998 -65.3576 TD 30 17 284
1888233N11299 1888 38 NA CS NOT_NAMED 1888-08-20 06:00:00 TS 12.2000 -66.2000 main 179 179 _____________O -1 12.2000 -66.2000 TD 30 17 284
1888233N11299 1888 38 NA CS NOT_NAMED 1888-08-20 09:00:00 TS 12.3922 -67.0077 main 201 169 _____________P -1 12.3922 -67.0077 TD 30 16 284
1888233N11299 1888 38 NA CS NOT_NAMED 1888-08-20 12:00:00 TS 12.6000 -67.8000 main 169 155 _____________O -1 12.6000 -67.8000 TD 30 16 286
1888233N11299 1888 38 NA CS NOT_NAMED 1888-08-20 15:00:00 TS 12.8498 -68.6000 main 158 124 _____________P -1 12.8498 -68.6000 TD 30 16 288
1888233N11299 1888 38 NA CS NOT_NAMED 1888-08-20 18:00:00 TS 13.1000 -69.4000 main 124 116 _____________O -1 13.1000 -69.4000 TD 30 16 286
1888233N11299 1888 38 NA CS NOT_NAMED 1888-08-20 21:00:00 TS 13.2998 -70.2077 main 134 134 _____________P -1 13.2998 -70.2077 TD 30 16 284
1888233N11299 1888 38 NA CS NOT_NAMED 1888-08-21 00:00:00 TS 13.5000 -71.0000 main 134 130 _____________O -1 13.5000 -71.0000 TD 30 16 287
1888233N11299 1888 38 NA CS NOT_NAMED 1888-08-21 03:00:00 TS 13.7497 -71.7575 main 145 145 _____________P -1 13.7497 -71.7575 TD 30 15 289
1888233N11299 1888 38 NA CS NOT_NAMED 1888-08-21 06:00:00 TS 14.0000 -72.5000 main 197 197 _____________O -1 14.0000 -72.5000 TD 30 15 288
1888233N11299 1888 38 NA CS NOT_NAMED 1888-08-21 09:00:00 TS 14.2073 -73.2502 main 253 253 _____________P -1 14.2073 -73.2502 TD 30 15 285
1888233N11299 1888 38 NA CS NOT_NAMED 1888-08-21 12:00:00 TS 14.4000 -74.0000 main 314 314 _____________O -1 14.4000 -74.0000 TD 30 15 285
1888233N11299 1888 38 NA CS NOT_NAMED 1888-08-21 15:00:00 TS 14.5998 -74.7501 main 386 354 _____________P -1 14.5998 -74.7501 TD 30 15 285
1888233N11299 1888 38 NA CS NOT_NAMED 1888-08-21 18:00:00 TS 14.8000 -75.5000 main 354 320 _____________O -1 14.8000 -75.5000 TD 30 15 285
1888233N11299 1888 38 NA CS NOT_NAMED 1888-08-21 21:00:00 TS 14.9924 -76.2652 main 317 280 _____________P -1 14.9924 -76.2652 TD 30 15 285
1888233N11299 1888 38 NA CS NOT_NAMED 1888-08-22 00:00:00 TS 15.2000 -77.0000 main 280 259 _____________O -1 15.2000 -77.0000 TD 30 14 289
1888233N11299 1888 38 NA CS NOT_NAMED 1888-08-22 03:00:00 TS 15.4497 -77.6725 main 262 246 _____________P -1 15.4497 -77.6725 TD 30 14 292
1888233N11299 1888 38 NA CS NOT_NAMED 1888-08-22 06:00:00 TS 15.7000 -78.3000 main 252 249 _____________O -1 15.7000 -78.3000 TD 30 13 291
1888233N11299 1888 38 NA CS NOT_NAMED 1888-08-22 09:00:00 TS 15.8997 -78.9003 main 257 257 _____________P -1 15.8997 -78.9003 TD 30 12 289
1888233N11299 1888 38 NA CS NOT_NAMED 1888-08-22 12:00:00 TS 16.1000 -79.5000 main 262 257 _____________O -1 16.1000 -79.5000 TD 30 13 291
1888233N11299 1888 38 NA CS NOT_NAMED 1888-08-22 15:00:00 TS 16.3499 -80.1500 main 278 277 _____________P -1 16.3499 -80.1500 TD 30 13 292
1888233N11299 1888 38 NA CS NOT_NAMED 1888-08-22 18:00:00 TS 16.6000 -80.8000 main 304 270 _____________O -1 16.6000 -80.8000 TD 30 13 290
1888233N11299 1888 38 NA CS NOT_NAMED 1888-08-22 21:00:00 TS 16.7773 -81.4080 main 271 240 _____________P -1 16.7773 -81.4080 TD 32 12 289
1888233N11299 1888 38 NA CS NOT_NAMED 1888-08-23 00:00:00 TS 17.0000 -82.0000 main 242 235 _____________O -1 17.0000 -82.0000 TS 35 13 298
1888233N11299 1888 38 NA CS NOT_NAMED 1888-08-23 03:00:00 TS 17.3773 -82.5999 main 250 244 _____________P -1 17.3773 -82.5999 TS 40 14 305
1888233N11299 1888 38 NA CS NOT_NAMED 1888-08-23 06:00:00 TS 17.8000 -83.2000 main 252 247 _____________O -1 17.8000 -83.2000 TS 45 14 304
1888233N11299 1888 38 NA CS NOT_NAMED 1888-08-23 09:00:00 TS 18.1497 -83.7929 main 262 262 _____________P -1 18.1497 -83.7929 TS 45 13 302
1888233N11299 1888 38 NA CS NOT_NAMED 1888-08-23 12:00:00 TS 18.5000 -84.4000 main 292 260 _____________O -1 18.5000 -84.4000 TS 45 14 302
1888233N11299 1888 38 NA CS NOT_NAMED 1888-08-23 15:00:00 TS 18.8999 -85.0500 main 250 179 _____________P -1 18.8999 -85.0500 TS 45 15 303
1888233N11299 1888 38 NA CS NOT_NAMED 1888-08-23 18:00:00 TS 19.3000 -85.7000 main 179 115 _____________O -1 19.3000 -85.7000 TS 45 14 302
1888233N11299 1888 38 NA CS NOT_NAMED 1888-08-23 21:00:00 TS 19.6496 -86.3005 main 115 62 _____________P -1 19.6496 -86.3005 TS 45 13 302
1888233N11299 1888 38 NA CS NOT_NAMED 1888-08-24 00:00:00 TS 20.0000 -86.9000 main 62 0 _____________O -1 20.0000 -86.9000 TS 45 14 302
1888233N11299 1888 38 NA NA NOT_NAMED 1888-08-24 03:00:00 TS 20.3881 -87.5366 main 0 0 _____________P -1 20.3881 -87.5366 TS 40 15 303
1888233N11299 1888 38 NA NA NOT_NAMED 1888-08-24 06:00:00 TS 20.8000 -88.2000 main 0 _____________O -1 20.8000 -88.2000 TS 35 15 304

About IBTrACS Database

This database is a web-friendly format of International Best Track Archive for Climate Stewardship (IBTrACS), a global best track data archive curated by NOAA dating back to 1842.

Updated: 2021-10-21